Aviation Digital Data Service (ADDS)

Output produced by METARs form (1106 UTC 19 February 2019)
found at http://www.aviationweather.gov/metar/data/
 
Forecast for: KSTL (ST. LOUIS , MO, US)
Text: KSTL 190857Z 1909/2012 07009KT P6SM SCT030 BKN250
Forecast period: 0900 to 2300 UTC 19 February 2019
Forecast type: FROM: standard forecast or significant change
Winds: from the ENE (70 degrees) at 10 MPH (9 knots; 4.6 m/s)
Visibility: 6 or more miles 10+ km)
Ceiling: 25000 feet AGL
Clouds: scattered clouds at 3000 feet AGL
broken clouds at 25000 feet AGL
Weather: no significant weather forecast for this period
Text: TEMPO 1909/1913 BKN030
Forecast period: 0900 to 1300 UTC 19 February 2019
Forecast type: TEMPORARY: The following changes expected for less than half the time period
Visibility: missing
Ceiling: 3000 feet AGL
Clouds: broken clouds at 3000 feet AGL
Weather: no significant weather forecast for this period
Text: FM192300 10012G18KT 1 1/2SM -SN OVC015
Forecast period: 2300 UTC 19 February 2019 to 1200 UTC 20 February 2019
Forecast type: FROM: standard forecast or significant change
Winds: from the E (100 degrees) at 14 MPH (12 knots; 6.2 m/s)
gusting to 21 MPH (18 knots; 9.3 m/s)
Visibility: 1.50 miles (2.41 km)
Ceiling: 1500 feet AGL
Clouds: overcast cloud deck at 1500 feet AGL
Weather: -SN  (light snow)